Bill Bridges - 9S1
(Top Gun)
11/08/17 12:22 PM
Attachment
Into KBZN



A cool morning in KBZN. Yesterday was KDFW-KBZN-CYVR-PAJN-KDFW. It was CAFB everywhere but KBZN.

SPECI KBZN 071748Z 00000KT 2SM BR SCT002 M17/M17 A3039 RMK
AO2 T11671167 $

Bill




Contact Us AVSIG

Powered by UBB.threads™ 6.5.5

Logout   Main Index    AVSIG Aviation Forum